Time;durP1;ratioP1;P1;durP2;ratioP2;P2;SDS_P1;SDS_P2;PMS_P1;PMS_P2;Temp;Humidity;BMP_temperature;BMP_pressure;BME280_temperature;BME280_humidity;BME280_pressure;Samples;Min_cycle;Max_cycle;Signal;HPM_P1;HPM_P2
2022/06/24 00:00:14;;;;;;;5.10;3.92;;;;;;;;;;4275445;33;20102;-62
2022/06/24 00:02:41;;;;;;;4.95;3.47;;;;;;;;;;4288701;33;20106;-63
2022/06/24 00:33:35;;;;;;;8.27;3.83;;;;;;;;;;4640194;28;20118;-69
2022/06/24 00:36:03;;;;;;;5.10;3.75;;;;;;;;;;4291634;33;20120;-71
2022/06/24 00:38:33;;;;;;;6.00;3.33;;;;;;;;;;4295896;33;20120;-70
2022/06/24 00:41:03;;;;;;;5.93;3.35;;;;;;;;;;4293480;33;20115;-71
2022/06/24 00:43:56;;;;;;;5.18;3.80;;;;;;;;;;4294675;33;20103;-70
2022/06/24 00:46:28;;;;;;;4.82;3.67;;;;;;;;;;4289270;33;20202;-70
2022/06/24 00:48:56;;;;;;;4.40;3.67;;;;;;;;;;4286555;33;20208;-70
2022/06/24 00:51:23;;;;;;;4.53;3.67;;;;;;;;;;4296267;33;20198;-70
2022/06/24 00:53:51;;;;;;;4.93;3.67;;;;;;;;;;4304880;33;20517;-61
2022/06/24 00:56:19;;;;;;;5.20;3.60;;;;;;;;;;4279235;33;20593;-63
2022/06/24 00:58:57;;;;;;;5.55;3.60;;;;;;;;;;4291536;33;20191;-64
2022/06/24 01:01:30;;;;;;;4.47;3.75;;;;;;;;;;4291332;33;20266;-63
2022/06/24 01:03:57;;;;;;;4.85;3.70;;;;;;;;;;4300478;33;20080;-70
2022/06/24 01:06:24;;;;;;;7.12;4.30;;;;;;;;;;4290174;33;20133;-71
2022/06/24 01:08:50;;;;;;;4.10;3.35;;;;;;;;;;4290303;33;20087;-70
2022/06/24 01:11:36;;;;;;;4.78;3.67;;;;;;;;;;4290299;33;20135;-70
2022/06/24 01:14:03;;;;;;;5.85;3.90;;;;;;;;;;4290211;33;20096;-71
2022/06/24 01:16:30;;;;;;;5.32;3.97;;;;;;;;;;4290189;33;20453;-71
2022/06/24 01:18:59;;;;;;;4.40;3.70;;;;;;;;;;4290232;33;20123;-71
2022/06/24 01:21:38;;;;;;;4.47;3.37;;;;;;;;;;4296806;33;20088;-70
2022/06/24 01:24:11;;;;;;;5.55;3.75;;;;;;;;;;4304866;33;20122;-70
2022/06/24 01:26:39;;;;;;;3.85;3.40;;;;;;;;;;4304742;33;20191;-70
2022/06/24 01:29:05;;;;;;;4.72;3.55;;;;;;;;;;4304746;33;20502;-71
2022/06/24 01:31:32;;;;;;;5.32;3.65;;;;;;;;;;4304606;33;20484;-72
2022/06/24 01:33:58;;;;;;;3.97;3.17;;;;;;;;;;4304633;33;20139;-72
2022/06/24 01:36:24;;;;;;;4.35;3.80;;;;;;;;;;4304489;33;20127;-71
2022/06/24 01:38:50;;;;;;;9.27;3.92;;;;;;;;;;4304449;33;20120;-72
2022/06/24 01:41:17;;;;;;;4.05;3.08;;;;;;;;;;4304577;33;20131;-72
2022/06/24 01:43:43;;;;;;;5.25;3.33;;;;;;;;;;4304273;33;20119;-72
2022/06/24 01:46:11;;;;;;;3.70;3.03;;;;;;;;;;4304505;33;20142;-72
2022/06/24 01:48:40;;;;;;;5.00;3.42;;;;;;;;;;4283087;33;20096;-72
2022/06/24 01:51:07;;;;;;;7.40;3.50;;;;;;;;;;4289996;33;20126;-71
2022/06/24 01:53:33;;;;;;;5.35;3.17;;;;;;;;;;4275571;33;20102;-72
2022/06/24 01:55:59;;;;;;;4.93;3.58;;;;;;;;;;4290272;33;20092;-72
2022/06/24 01:58:25;;;;;;;6.60;3.42;;;;;;;;;;4289878;33;20104;-72
2022/06/24 02:00:52;;;;;;;9.63;3.30;;;;;;;;;;4290184;33;20116;-72
2022/06/24 02:03:17;;;;;;;3.90;2.75;;;;;;;;;;4289770;33;20102;-71
2022/06/24 02:05:45;;;;;;;4.05;3.10;;;;;;;;;;4276477;33;20107;-71
2022/06/24 02:08:11;;;;;;;3.72;3.12;;;;;;;;;;4276488;33;20138;-73
2022/06/24 02:13:28;;;;;;;4.60;3.05;;;;;;;;;;4289687;33;20126;-73
2022/06/24 02:16:03;;;;;;;3.97;3.37;;;;;;;;;;4265005;33;20104;-73
2022/06/24 02:18:30;;;;;;;4.68;3.40;;;;;;;;;;4290139;33;20146;-72
2022/06/24 02:20:57;;;;;;;3.85;3.15;;;;;;;;;;4289702;33;20219;-73
2022/06/24 02:23:23;;;;;;;4.32;3.35;;;;;;;;;;4301544;33;20082;-72
2022/06/24 02:25:50;;;;;;;3.85;3.45;;;;;;;;;;4304144;33;20118;-73
2022/06/24 02:28:17;;;;;;;5.07;3.05;;;;;;;;;;4304035;33;20198;-73
2022/06/24 02:30:44;;;;;;;7.62;3.25;;;;;;;;;;4304155;33;20111;-72
2022/06/24 02:33:11;;;;;;;4.28;3.50;;;;;;;;;;4304205;33;20139;-70
2022/06/24 02:35:38;;;;;;;3.37;3.00;;;;;;;;;;4304148;33;20107;-71
2022/06/24 02:38:05;;;;;;;4.40;3.28;;;;;;;;;;4303946;33;20502;-72
2022/06/24 02:40:49;;;;;;;5.85;3.40;;;;;;;;;;4304239;33;20095;-71
2022/06/24 02:43:21;;;;;;;5.65;4.03;;;;;;;;;;4304344;33;20212;-72
2022/06/24 02:45:50;;;;;;;5.47;3.55;;;;;;;;;;4304025;33;20095;-72
2022/06/24 02:48:17;;;;;;;4.37;3.97;;;;;;;;;;4303778;33;20134;-71
2022/06/24 02:50:45;;;;;;;7.62;3.17;;;;;;;;;;4278122;33;20518;-71
2022/06/24 02:53:12;;;;;;;4.35;3.28;;;;;;;;;;4275882;33;20110;-70
2022/06/24 02:55:38;;;;;;;3.85;3.33;;;;;;;;;;4289432;33;20084;-70
2022/06/24 02:58:05;;;;;;;4.18;2.97;;;;;;;;;;4289617;33;20131;-71
2022/06/24 03:00:31;;;;;;;4.32;2.90;;;;;;;;;;4276229;33;20107;-72
2022/06/24 03:02:57;;;;;;;5.45;3.22;;;;;;;;;;4289455;33;20098;-71
2022/06/24 03:05:24;;;;;;;4.15;3.37;;;;;;;;;;4288959;33;20182;-71
2022/06/24 03:07:50;;;;;;;6.30;3.42;;;;;;;;;;4289311;33;20583;-72
2022/06/24 03:10:17;;;;;;;5.10;3.67;;;;;;;;;;4289277;33;20119;-72
2022/06/24 03:12:43;;;;;;;8.75;3.30;;;;;;;;;;4289489;33;20122;-71
2022/06/24 03:15:10;;;;;;;5.60;3.45;;;;;;;;;;4289281;33;20112;-72
2022/06/24 03:17:37;;;;;;;3.97;3.58;;;;;;;;;;4289022;33;20118;-73
2022/06/24 03:20:07;;;;;;;4.15;3.40;;;;;;;;;;4289168;33;20106;-73
2022/06/24 03:22:33;;;;;;;4.18;3.78;;;;;;;;;;4289076;33;20119;-72
2022/06/24 03:24:59;;;;;;;6.35;3.05;;;;;;;;;;4275934;33;20111;-74
2022/06/24 03:27:26;;;;;;;3.50;3.20;;;;;;;;;;4289024;33;20118;-73
2022/06/24 03:29:52;;;;;;;6.72;3.55;;;;;;;;;;4289315;33;20101;-72
2022/06/24 03:32:18;;;;;;;5.15;3.10;;;;;;;;;;4300042;33;20103;-74
2022/06/24 03:34:44;;;;;;;5.37;3.10;;;;;;;;;;4303520;33;20108;-75
2022/06/24 03:37:10;;;;;;;5.50;3.50;;;;;;;;;;4303289;33;20432;-75
2022/06/24 03:39:36;;;;;;;7.55;3.40;;;;;;;;;;4303605;33;20096;-75
2022/06/24 03:42:03;;;;;;;3.47;2.90;;;;;;;;;;4303613;33;20257;-75
2022/06/24 03:44:29;;;;;;;6.97;3.35;;;;;;;;;;4293061;33;20115;-77
2022/06/24 03:46:55;;;;;;;12.65;3.62;;;;;;;;;;4282184;33;20116;-76
2022/06/24 03:49:21;;;;;;;11.23;4.03;;;;;;;;;;4297586;33;20129;-76
2022/06/24 03:51:47;;;;;;;6.60;3.40;;;;;;;;;;4281786;33;20099;-76
2022/06/24 03:54:13;;;;;;;9.55;3.65;;;;;;;;;;4294985;33;20112;-76
2022/06/24 03:56:40;;;;;;;6.82;3.47;;;;;;;;;;4295040;33;20115;-76
2022/06/24 03:59:05;;;;;;;5.12;2.97;;;;;;;;;;4296730;33;20096;-76
2022/06/24 04:01:32;;;;;;;7.47;3.30;;;;;;;;;;4294302;33;20140;-73
2022/06/24 04:03:58;;;;;;;6.25;3.40;;;;;;;;;;4293799;33;20092;-72
2022/06/24 04:06:24;;;;;;;3.37;3.08;;;;;;;;;;4291747;33;20434;-73
2022/06/24 04:08:52;;;;;;;9.50;3.85;;;;;;;;;;4298769;33;20119;-72
2022/06/24 04:11:18;;;;;;;2.70;2.45;;;;;;;;;;4303104;33;20111;-71
2022/06/24 04:13:44;;;;;;;6.12;3.37;;;;;;;;;;4300827;33;20221;-72
2022/06/24 04:16:10;;;;;;;4.40;3.60;;;;;;;;;;4288870;33;20093;-72
2022/06/24 04:18:37;;;;;;;8.40;3.30;;;;;;;;;;4290816;33;20443;-70
2022/06/24 04:21:09;;;;;;;3.12;2.70;;;;;;;;;;4290777;33;20533;-70
2022/06/24 04:23:35;;;;;;;5.12;3.03;;;;;;;;;;4299425;33;20132;-71
2022/06/24 04:26:01;;;;;;;5.05;2.97;;;;;;;;;;4305409;33;20522;-69
2022/06/24 04:28:27;;;;;;;3.22;2.75;;;;;;;;;;4291821;33;20088;-70
2022/06/24 04:30:53;;;;;;;3.47;3.03;;;;;;;;;;4305155;33;20125;-67
2022/06/24 04:33:19;;;;;;;7.18;3.33;;;;;;;;;;4305019;33;20545;-69
2022/06/24 04:35:45;;;;;;;6.18;4.00;;;;;;;;;;4305211;33;20525;-70
2022/06/24 04:38:11;;;;;;;5.37;3.15;;;;;;;;;;4305048;33;20110;-68
2022/06/24 04:40:37;;;;;;;4.03;3.50;;;;;;;;;;4296604;33;20103;-68
2022/06/24 04:43:03;;;;;;;9.70;3.60;;;;;;;;;;4290779;33;20095;-69
2022/06/24 04:45:29;;;;;;;5.68;2.95;;;;;;;;;;4276944;33;20119;-71
2022/06/24 04:47:55;;;;;;;3.78;3.30;;;;;;;;;;4290885;33;20096;-71
2022/06/24 04:50:21;;;;;;;6.45;3.17;;;;;;;;;;4290576;33;20223;-71
2022/06/24 04:52:47;;;;;;;12.82;3.42;;;;;;;;;;4290544;33;20096;-72
2022/06/24 04:55:13;;;;;;;4.85;3.28;;;;;;;;;;4290562;33;20107;-72
2022/06/24 04:57:39;;;;;;;12.23;3.50;;;;;;;;;;4290472;33;20108;-71
2022/06/24 05:00:06;;;;;;;7.80;2.80;;;;;;;;;;4290613;33;20213;-71
2022/06/24 05:02:32;;;;;;;4.32;3.03;;;;;;;;;;4290371;33;20613;-71
2022/06/24 05:04:58;;;;;;;3.87;2.80;;;;;;;;;;4290662;33;20104;-71
2022/06/24 05:07:24;;;;;;;3.22;2.90;;;;;;;;;;4290202;33;20100;-70
2022/06/24 05:09:50;;;;;;;7.30;3.28;;;;;;;;;;4290849;33;20420;-70
2022/06/24 05:12:16;;;;;;;9.57;3.17;;;;;;;;;;4290157;33;20112;-71
2022/06/24 05:14:42;;;;;;;5.93;3.62;;;;;;;;;;4290464;33;20172;-70
2022/06/24 05:17:08;;;;;;;6.55;3.35;;;;;;;;;;4290224;33;20221;-70
2022/06/24 05:19:34;;;;;;;3.90;3.30;;;;;;;;;;4290211;33;20132;-69
2022/06/24 05:22:00;;;;;;;5.53;3.25;;;;;;;;;;4290429;33;20116;-70
2022/06/24 05:24:26;;;;;;;6.95;3.30;;;;;;;;;;4276884;33;20135;-68
2022/06/24 05:26:52;;;;;;;5.37;3.53;;;;;;;;;;4290000;33;20558;-69
2022/06/24 05:29:18;;;;;;;7.07;3.70;;;;;;;;;;4290343;33;20088;-69
2022/06/24 05:31:45;;;;;;;4.50;3.60;;;;;;;;;;4290353;33;20187;-70
2022/06/24 05:34:12;;;;;;;5.57;3.58;;;;;;;;;;4289985;33;20127;-70
2022/06/24 05:36:37;;;;;;;4.80;3.12;;;;;;;;;;4290373;33;20103;-70
2022/06/24 05:39:07;;;;;;;5.97;3.42;;;;;;;;;;4290113;33;20127;-69
2022/06/24 05:41:34;;;;;;;9.57;3.60;;;;;;;;;;4290010;33;20100;-69
2022/06/24 05:44:00;;;;;;;5.18;3.00;;;;;;;;;;4290365;33;20128;-71
2022/06/24 05:46:27;;;;;;;5.05;3.05;;;;;;;;;;4289945;33;20100;-70
2022/06/24 05:48:53;;;;;;;8.02;4.65;;;;;;;;;;4290007;33;20096;-70
2022/06/24 05:51:19;;;;;;;6.85;3.45;;;;;;;;;;4289948;33;20096;-70
2022/06/24 05:56:31;;;;;;;5.30;3.50;;;;;;;;;;4289968;33;20207;-63
2022/06/24 05:58:58;;;;;;;14.43;3.80;;;;;;;;;;4289875;33;20127;-62
2022/06/24 06:01:25;;;;;;;5.78;3.33;;;;;;;;;;4289808;33;20121;-64
2022/06/24 06:03:51;;;;;;;8.38;3.45;;;;;;;;;;4289793;33;20146;-63
2022/06/24 06:06:17;;;;;;;9.73;3.10;;;;;;;;;;4276264;33;20115;-62
2022/06/24 06:08:43;;;;;;;5.40;3.10;;;;;;;;;;4289733;33;20157;-62
2022/06/24 06:11:21;;;;;;;13.35;4.10;;;;;;;;;;4290063;33;20106;-63
2022/06/24 06:13:49;;;;;;;10.80;3.15;;;;;;;;;;4283872;33;20127;-64
2022/06/24 06:16:15;;;;;;;7.03;3.25;;;;;;;;;;4289624;33;20443;-64
2022/06/24 06:18:41;;;;;;;11.98;3.78;;;;;;;;;;4289629;33;20144;-64
2022/06/24 06:21:09;;;;;;;7.53;3.05;;;;;;;;;;4276303;33;20127;-64
2022/06/24 06:23:36;;;;;;;14.57;3.97;;;;;;;;;;4289548;33;20137;-65
2022/06/24 06:26:03;;;;;;;10.18;3.55;;;;;;;;;;4289519;33;20108;-64
2022/06/24 06:28:30;;;;;;;7.72;3.40;;;;;;;;;;4289457;33;20175;-65
2022/06/24 06:30:56;;;;;;;5.97;3.20;;;;;;;;;;4289580;33;20091;-65
2022/06/24 06:33:22;;;;;;;5.82;3.15;;;;;;;;;;4276008;33;20146;-64
2022/06/24 06:35:48;;;;;;;11.75;5.03;;;;;;;;;;4289800;33;20104;-65
2022/06/24 06:38:15;;;;;;;9.50;3.05;;;;;;;;;;4289041;33;20119;-65
2022/06/24 06:40:41;;;;;;;4.60;2.80;;;;;;;;;;4289660;33;20190;-64
2022/06/24 06:43:07;;;;;;;6.35;3.28;;;;;;;;;;4289693;33;20092;-64
2022/06/24 06:45:34;;;;;;;3.97;3.22;;;;;;;;;;4289618;33;20103;-65
2022/06/24 06:48:00;;;;;;;7.43;3.25;;;;;;;;;;4276257;33;20467;-64
2022/06/24 06:50:27;;;;;;;5.70;3.53;;;;;;;;;;4293316;33;20217;-65
2022/06/24 06:52:54;;;;;;;5.18;3.00;;;;;;;;;;4294994;33;20531;-65
2022/06/24 06:55:20;;;;;;;7.87;3.30;;;;;;;;;;4289587;33;20100;-65
2022/06/24 06:57:46;;;;;;;5.72;3.70;;;;;;;;;;4287120;33;20115;-64
2022/06/24 07:00:13;;;;;;;6.60;3.70;;;;;;;;;;4295724;33;20482;-65
2022/06/24 07:02:39;;;;;;;5.60;3.12;;;;;;;;;;4297249;33;20104;-65
2022/06/24 07:05:06;;;;;;;3.47;3.08;;;;;;;;;;4299859;33;20178;-66
2022/06/24 07:07:32;;;;;;;9.57;3.58;;;;;;;;;;4298492;33;20131;-64
2022/06/24 07:09:58;;;;;;;18.70;4.32;;;;;;;;;;4296793;33;20103;-67
2022/06/24 07:12:25;;;;;;;12.50;3.65;;;;;;;;;;4295636;33;20207;-68
2022/06/24 07:14:51;;;;;;;29.05;4.62;;;;;;;;;;4288302;33;20218;-67
2022/06/24 07:17:17;;;;;;;5.65;3.85;;;;;;;;;;4297033;33;20123;-66
2022/06/24 07:19:44;;;;;;;4.97;3.33;;;;;;;;;;4291609;33;20119;-65
2022/06/24 07:22:10;;;;;;;4.47;3.10;;;;;;;;;;4296026;33;20119;-64
2022/06/24 07:24:36;;;;;;;6.43;3.60;;;;;;;;;;4294633;33;20199;-68
2022/06/24 07:27:07;;;;;;;5.40;2.92;;;;;;;;;;4294567;33;20104;-64
2022/06/24 07:29:33;;;;;;;6.45;3.00;;;;;;;;;;4295916;33;20134;-64
2022/06/24 07:32:00;;;;;;;8.18;3.15;;;;;;;;;;4301290;33;20558;-65
2022/06/24 07:34:26;;;;;;;7.97;3.42;;;;;;;;;;4303327;33;20543;-67
2022/06/24 07:36:55;;;;;;;4.80;3.12;;;;;;;;;;4298565;33;20111;-64
2022/06/24 07:39:21;;;;;;;9.30;3.60;;;;;;;;;;4288952;33;20137;-65
2022/06/24 07:41:47;;;;;;;7.82;3.75;;;;;;;;;;4289071;33;20116;-72
2022/06/24 07:44:13;;;;;;;7.53;3.33;;;;;;;;;;4291846;33;20447;-67
2022/06/24 07:46:39;;;;;;;3.55;2.55;;;;;;;;;;4298298;33;20111;-65
2022/06/24 07:49:05;;;;;;;2.35;2.15;;;;;;;;;;4289998;33;20123;-69
2022/06/24 07:51:31;;;;;;;1.48;1.37;;;;;;;;;;4298292;33;20099;-69
2022/06/24 07:53:58;;;;;;;2.65;1.75;;;;;;;;;;4291054;33;20604;-67
2022/06/24 07:59:08;;;;;;;2.50;2.10;;;;;;;;;;4298741;33;20154;-68
2022/06/24 08:01:34;;;;;;;6.00;2.75;;;;;;;;;;4298122;33;20127;-67
2022/06/24 08:04:07;;;;;;;1.05;1.05;;;;;;;;;;4304135;33;20716;-67
2022/06/24 08:06:37;;;;;;;2.85;2.47;;;;;;;;;;4304170;33;20112;-67
2022/06/24 08:09:03;;;;;;;2.30;2.10;;;;;;;;;;4277709;33;20213;-67
2022/06/24 08:11:30;;;;;;;1.75;1.65;;;;;;;;;;4290811;33;20475;-68
2022/06/24 08:13:56;;;;;;;4.47;2.67;;;;;;;;;;4290770;33;20519;-68
2022/06/24 08:16:22;;;;;;;2.78;2.30;;;;;;;;;;4291016;33;20218;-68
2022/06/24 08:18:49;;;;;;;5.35;2.30;;;;;;;;;;4277304;33;20197;-68
2022/06/24 08:21:15;;;;;;;4.85;2.62;;;;;;;;;;4277381;33;20119;-68
2022/06/24 08:23:41;;;;;;;2.75;2.50;;;;;;;;;;4265103;33;20210;-68
2022/06/24 08:26:08;;;;;;;6.20;2.25;;;;;;;;;;4277286;33;20115;-70
2022/06/24 08:28:34;;;;;;;2.78;1.90;;;;;;;;;;4290624;33;20111;-69
2022/06/24 08:31:01;;;;;;;6.45;2.22;;;;;;;;;;4277472;33;20112;-67
2022/06/24 08:33:27;;;;;;;7.45;2.80;;;;;;;;;;4290418;33;20128;-67
2022/06/24 08:35:53;;;;;;;5.97;2.28;;;;;;;;;;4265456;33;20115;-68
2022/06/24 08:38:19;;;;;;;4.87;2.03;;;;;;;;;;4290527;33;20214;-69
2022/06/24 08:40:47;;;;;;;6.40;3.30;;;;;;;;;;4277686;33;20554;-67
2022/06/24 08:43:13;;;;;;;1.98;1.80;;;;;;;;;;4277104;33;20090;-67
2022/06/24 08:45:39;;;;;;;2.65;2.03;;;;;;;;;;4290624;33;20527;-68
2022/06/24 08:48:14;;;;;;;4.85;2.03;;;;;;;;;;4277070;33;20122;-65
2022/06/24 08:50:40;;;;;;;;;;;;;;;;;;4291076;33;20115;-67
2022/06/24 08:53:10;;;;;;;2.78;1.75;;;;;;;;;;4290467;33;20148;-65
2022/06/24 08:55:38;;;;;;;6.45;2.58;;;;;;;;;;4265343;33;20637;-65
2022/06/24 08:58:08;;;;;;;7.70;2.20;;;;;;;;;;4290242;33;20123;-67
2022/06/24 09:00:34;;;;;;;4.32;1.80;;;;;;;;;;4290620;33;20132;-68
2022/06/24 09:03:00;;;;;;;3.60;1.42;;;;;;;;;;4289913;33;20096;-67
2022/06/24 09:05:27;;;;;;;5.57;2.60;;;;;;;;;;4290397;33;20108;-67
2022/06/24 09:08:04;;;;;;;4.32;1.95;;;;;;;;;;4282436;33;20198;-69
2022/06/24 09:10:30;;;;;;;6.85;2.10;;;;;;;;;;4297905;33;20107;-66
2022/06/24 09:12:56;;;;;;;2.33;1.30;;;;;;;;;;4295364;33;20092;-67
2022/06/24 09:15:22;;;;;;;2.00;1.67;;;;;;;;;;4296660;33;20104;-68
2022/06/24 09:17:49;;;;;;;2.05;1.80;;;;;;;;;;4298427;33;20107;-69
2022/06/24 09:20:21;;;;;;;5.25;1.98;;;;;;;;;;4291403;33;20102;-67
2022/06/24 09:22:47;;;;;;;20.88;2.37;;;;;;;;;;4291859;33;20544;-69
2022/06/24 09:25:13;;;;;;;2.45;1.87;;;;;;;;;;4289757;33;20143;-69
2022/06/24 09:27:44;;;;;;;5.80;2.20;;;;;;;;;;4290286;33;20079;-70
2022/06/24 09:30:11;;;;;;;11.60;1.98;;;;;;;;;;4282331;33;20490;-70
2022/06/24 09:32:55;;;;;;;1.52;1.42;;;;;;;;;;4290704;33;20092;-68
2022/06/24 09:35:24;;;;;;;3.90;1.90;;;;;;;;;;4304357;33;20205;-67
2022/06/24 09:37:51;;;;;;;2.30;2.05;;;;;;;;;;4304455;33;20122;-68
2022/06/24 09:40:28;;;;;;;5.22;2.28;;;;;;;;;;4304479;33;20226;-69
2022/06/24 09:43:05;;;;;;;1.70;1.60;;;;;;;;;;4304416;33;20088;-68
2022/06/24 09:45:48;;;;;;;2.78;1.83;;;;;;;;;;4304470;33;20114;-68
2022/06/24 09:48:37;;;;;;;4.35;2.03;;;;;;;;;;4279281;33;20096;-68
2022/06/24 09:51:04;;;;;;;1.80;1.67;;;;;;;;;;4289983;33;20114;-68
2022/06/24 09:53:32;;;;;;;4.97;1.90;;;;;;;;;;4290057;33;20135;-67
2022/06/24 09:55:59;;;;;;;9.65;2.25;;;;;;;;;;4289792;33;20195;-67
2022/06/24 09:58:26;;;;;;;4.78;1.62;;;;;;;;;;4289945;33;20104;-68
2022/06/24 10:00:52;;;;;;;2.10;1.67;;;;;;;;;;4289986;33;20483;-68
2022/06/24 10:03:18;;;;;;;2.25;1.95;;;;;;;;;;4289700;33;20479;-68
2022/06/24 10:05:49;;;;;;;5.55;1.80;;;;;;;;;;4290022;33;20123;-69
2022/06/24 10:08:21;;;;;;;3.55;1.70;;;;;;;;;;4290022;33;20117;-68
2022/06/24 10:10:52;;;;;;;3.62;1.83;;;;;;;;;;4290170;33;20191;-69
2022/06/24 10:13:34;;;;;;;4.35;1.55;;;;;;;;;;4288755;33;20110;-67
2022/06/24 10:16:03;;;;;;;2.05;1.77;;;;;;;;;;4290076;33;20087;-67
2022/06/24 10:18:34;;;;;;;5.07;1.90;;;;;;;;;;4276202;33;20120;-67
2022/06/24 10:21:02;;;;;;;2.22;2.03;;;;;;;;;;4276400;33;20100;-68
2022/06/24 10:23:38;;;;;;;2.05;1.80;;;;;;;;;;4276529;33;20132;-66
2022/06/24 10:26:24;;;;;;;6.80;2.08;;;;;;;;;;4289684;33;20112;-66
2022/06/24 10:28:59;;;;;;;;;;;;;;;;;;4289953;33;20132;-66
2022/06/24 10:31:54;;;;;;;3.72;2.42;;;;;;;;;;4276498;33;20066;-66
2022/06/24 10:34:22;;;;;;;5.50;2.23;;;;;;;;;;4284056;33;20651;-66
2022/06/24 10:37:12;;;;;;;16.85;2.45;;;;;;;;;;4276507;33;20126;-64
2022/06/24 10:39:50;;;;;;;2.62;1.95;;;;;;;;;;4289533;33;20126;-67
2022/06/24 10:42:24;;;;;;;3.65;2.20;;;;;;;;;;4289572;33;20104;-67
2022/06/24 10:45:06;;;;;;;26.17;3.53;;;;;;;;;;4276136;33;20199;-65
2022/06/24 10:47:34;;;;;;;4.65;2.00;;;;;;;;;;4289251;33;20187;-65
2022/06/24 10:50:02;;;;;;;3.62;1.77;;;;;;;;;;4289767;33;20184;-64
2022/06/24 10:52:32;;;;;;;8.43;1.90;;;;;;;;;;4289284;33;20108;-65
2022/06/24 10:55:34;;;;;;;8.02;2.33;;;;;;;;;;4289382;33;20107;-67
2022/06/24 10:58:05;;;;;;;5.50;2.65;;;;;;;;;;4289231;33;20115;-64
2022/06/24 11:00:39;;;;;;;8.25;2.28;;;;;;;;;;4289450;33;20114;-66
2022/06/24 11:03:05;;;;;;;4.07;1.70;;;;;;;;;;4289472;33;20124;-66
2022/06/24 11:05:32;;;;;;;3.97;1.90;;;;;;;;;;4289377;33;20123;-68
2022/06/24 11:07:59;;;;;;;2.25;1.80;;;;;;;;;;4289135;33;20436;-67
2022/06/24 11:10:26;;;;;;;1.65;1.50;;;;;;;;;;4276251;33;20114;-66
2022/06/24 11:12:57;;;;;;;4.93;1.60;;;;;;;;;;4289192;33;20214;-66
2022/06/24 11:15:44;;;;;;;5.68;1.70;;;;;;;;;;4274854;33;20099;-68
2022/06/24 11:18:11;;;;;;;4.60;2.28;;;;;;;;;;4290892;33;20681;-67
2022/06/24 11:20:41;;;;;;;9.18;2.03;;;;;;;;;;4290312;33;20124;-67
2022/06/24 11:23:09;;;;;;;5.07;1.70;;;;;;;;;;4303475;33;20183;-68
2022/06/24 11:25:35;;;;;;;7.93;1.58;;;;;;;;;;4303413;33;20095;-69
2022/06/24 11:28:02;;;;;;;1.75;1.50;;;;;;;;;;4290127;33;20182;-67
2022/06/24 11:30:28;;;;;;;3.45;3.15;;;;;;;;;;4289993;33;20210;-67
2022/06/24 11:32:56;;;;;;;1.52;1.40;;;;;;;;;;4289904;33;20131;-66
2022/06/24 11:35:23;;;;;;;1.23;1.15;;;;;;;;;;4303313;33;20139;-67
2022/06/24 11:37:49;;;;;;;7.20;1.73;;;;;;;;;;4303585;33;20094;-66
2022/06/24 11:40:23;;;;;;;1.50;1.40;;;;;;;;;;4303348;33;20542;-66
2022/06/24 11:42:49;;;;;;;1.58;1.48;;;;;;;;;;4303444;33;20107;-69
2022/06/24 11:45:15;;;;;;;2.72;1.80;;;;;;;;;;4303394;33;20640;-67
2022/06/24 11:47:47;;;;;;;5.55;1.90;;;;;;;;;;4290159;33;20490;-66
2022/06/24 11:50:19;;;;;;;6.82;1.95;;;;;;;;;;4303247;33;20448;-67
2022/06/24 11:52:46;;;;;;;8.32;2.10;;;;;;;;;;4289799;33;20130;-65
2022/06/24 11:55:33;;;;;;;4.15;1.80;;;;;;;;;;4303238;33;20119;-67
2022/06/24 11:58:00;;;;;;;3.53;1.60;;;;;;;;;;4303161;33;20103;-68
2022/06/24 12:00:29;;;;;;;3.17;1.90;;;;;;;;;;4289505;33;20123;-68
2022/06/24 12:02:57;;;;;;;3.40;2.10;;;;;;;;;;4303090;33;20190;-65
2022/06/24 12:05:26;;;;;;;5.22;1.92;;;;;;;;;;4303438;33;20123;-68
2022/06/24 12:07:54;;;;;;;5.50;1.75;;;;;;;;;;4303290;33;20126;-65
2022/06/24 12:10:20;;;;;;;3.45;1.62;;;;;;;;;;4277739;33;20577;-68
2022/06/24 12:13:05;;;;;;;8.27;1.73;;;;;;;;;;4303007;33;20098;-68
2022/06/24 12:15:31;;;;;;;;;;;;;;;;;;4303553;33;20119;-65
2022/06/24 12:17:57;;;;;;;2.83;1.77;;;;;;;;;;4303116;33;20057;-66
2022/06/24 12:20:25;;;;;;;2.08;1.67;;;;;;;;;;4289747;33;20143;-66
2022/06/24 12:23:12;;;;;;;1.50;1.40;;;;;;;;;;4302848;33;20471;-65
2022/06/24 12:25:40;;;;;;;5.00;1.70;;;;;;;;;;4302917;33;20124;-66
2022/06/24 12:28:15;;;;;;;1.70;1.55;;;;;;;;;;4302846;33;20214;-68
2022/06/24 12:30:41;;;;;;;4.10;1.55;;;;;;;;;;4289296;33;20531;-65
2022/06/24 12:33:12;;;;;;;1.67;1.58;;;;;;;;;;4302705;33;20485;-66
2022/06/24 12:35:38;;;;;;;10.85;1.58;;;;;;;;;;4289509;33;20178;-67
2022/06/24 12:38:10;;;;;;;2.55;1.67;;;;;;;;;;4304327;33;20125;-68
2022/06/24 12:40:36;;;;;;;3.45;1.37;;;;;;;;;;4305360;33;20202;-68
2022/06/24 12:43:11;;;;;;;1.00;1.00;;;;;;;;;;4305139;33;20107;-66
2022/06/24 12:45:39;;;;;;;3.80;1.67;;;;;;;;;;4304935;33;20209;-68
2022/06/24 12:50:59;;;;;;;;;;;;;;;;;;4306507;33;20080;-67
2022/06/24 12:53:26;;;;;;;4.65;1.23;;;;;;;;;;4307421;33;20434;-67
2022/06/24 12:55:52;;;;;;;4.30;1.40;;;;;;;;;;4298253;33;20108;-66
2022/06/24 12:58:19;;;;;;;1.52;1.00;;;;;;;;;;4290430;33;20115;-67
2022/06/24 13:00:45;;;;;;;1.27;1.17;;;;;;;;;;4290802;33;20447;-67
2022/06/24 13:03:17;;;;;;;2.25;1.42;;;;;;;;;;4290334;33;20100;-65
2022/06/24 13:05:43;;;;;;;1.40;1.30;;;;;;;;;;4290236;33;20128;-67
2022/06/24 13:08:09;;;;;;;6.43;1.75;;;;;;;;;;4290203;33;20127;-67
2022/06/24 13:10:35;;;;;;;1.90;1.35;;;;;;;;;;4290452;33;20115;-67
2022/06/24 13:13:04;;;;;;;2.78;1.30;;;;;;;;;;4276862;33;20111;-67
2022/06/24 13:15:30;;;;;;;2.45;1.40;;;;;;;;;;4285976;33;20195;-67
2022/06/24 13:17:56;;;;;;;5.28;2.83;;;;;;;;;;4290333;33;20132;-67
2022/06/24 13:20:22;;;;;;;2.03;1.20;;;;;;;;;;4290650;33;20130;-67
2022/06/24 13:22:48;;;;;;;2.80;1.20;;;;;;;;;;4290295;33;20108;-67
2022/06/24 13:25:15;;;;;;;5.78;1.48;;;;;;;;;;4290419;33;20112;-68
2022/06/24 13:27:41;;;;;;;9.50;1.45;;;;;;;;;;4290158;33;20100;-68
2022/06/24 13:30:09;;;;;;;5.43;1.30;;;;;;;;;;4290147;33;20099;-69
2022/06/24 13:32:35;;;;;;;4.65;1.20;;;;;;;;;;4290306;33;20611;-67
2022/06/24 13:35:01;;;;;;;3.22;1.20;;;;;;;;;;4290294;33;20132;-67
2022/06/24 13:37:27;;;;;;;4.95;1.30;;;;;;;;;;4290213;33;20132;-67
2022/06/24 13:39:53;;;;;;;7.80;1.30;;;;;;;;;;4276683;33;20111;-67
2022/06/24 13:42:19;;;;;;;10.23;1.50;;;;;;;;;;4290164;33;20147;-67
2022/06/24 13:44:45;;;;;;;2.67;1.30;;;;;;;;;;4290315;33;20138;-67
2022/06/24 13:47:11;;;;;;;5.45;1.35;;;;;;;;;;4289910;33;20131;-68
2022/06/24 13:49:37;;;;;;;3.67;1.87;;;;;;;;;;4290006;33;20123;-68
2022/06/24 13:52:03;;;;;;;1.45;1.20;;;;;;;;;;4290300;33;20135;-69
2022/06/24 13:54:29;;;;;;;3.65;1.70;;;;;;;;;;4289855;33;20410;-67
2022/06/24 13:56:56;;;;;;;2.37;1.20;;;;;;;;;;4290156;33;20135;-67
2022/06/24 13:59:22;;;;;;;1.40;1.20;;;;;;;;;;4290245;33;20150;-70
2022/06/24 14:01:48;;;;;;;2.00;1.15;;;;;;;;;;4277234;33;20215;-69
2022/06/24 14:04:14;;;;;;;3.10;1.20;;;;;;;;;;4285510;33;20207;-69
2022/06/24 14:06:40;;;;;;;1.45;1.35;;;;;;;;;;4288826;33;20135;-68
2022/06/24 14:09:06;;;;;;;8.05;3.47;;;;;;;;;;4290528;33;20434;-70
2022/06/24 14:11:32;;;;;;;5.40;1.40;;;;;;;;;;4304654;33;20100;-67
2022/06/24 14:13:58;;;;;;;27.80;2.25;;;;;;;;;;4304446;33;20096;-70
2022/06/24 14:16:24;;;;;;;5.55;1.73;;;;;;;;;;4304318;33;20100;-69
2022/06/24 14:18:50;;;;;;;3.35;1.23;;;;;;;;;;4290535;33;20205;-69
2022/06/24 14:21:16;;;;;;;8.48;1.30;;;;;;;;;;4304345;33;20127;-66
2022/06/24 14:26:27;;;;;;;2.12;1.40;;;;;;;;;;4289242;33;20103;-68
2022/06/24 14:28:54;;;;;;;2.78;1.40;;;;;;;;;;4301961;33;20203;-68
2022/06/24 14:31:20;;;;;;;5.47;1.30;;;;;;;;;;4302995;33;20111;-68
2022/06/24 14:33:47;;;;;;;5.87;1.30;;;;;;;;;;4302922;33;20112;-68
2022/06/24 14:36:13;;;;;;;8.20;1.42;;;;;;;;;;4289782;33;20112;-68
2022/06/24 14:41:25;;;;;;;5.18;1.73;;;;;;;;;;4303837;33;20117;-69
2022/06/24 14:43:52;;;;;;;2.55;1.27;;;;;;;;;;4290371;33;20514;-69
2022/06/24 14:46:18;;;;;;;2.75;1.17;;;;;;;;;;4303837;33;20083;-69
2022/06/24 14:48:44;;;;;;;2.30;1.33;;;;;;;;;;4303905;33;20518;-67
2022/06/24 14:51:10;;;;;;;6.37;1.80;;;;;;;;;;4302902;33;20095;-68
2022/06/24 14:53:36;;;;;;;4.25;1.33;;;;;;;;;;4296818;33;20114;-68
2022/06/24 14:56:02;;;;;;;4.18;1.40;;;;;;;;;;4299494;33;20122;-68
2022/06/24 14:58:28;;;;;;;6.78;1.48;;;;;;;;;;4303223;33;20127;-68
2022/06/24 15:00:54;;;;;;;4.82;1.37;;;;;;;;;;4299969;33;20108;-66
2022/06/24 15:03:20;;;;;;;2.92;1.35;;;;;;;;;;4303598;33;20467;-68
2022/06/24 15:05:46;;;;;;;1.60;1.40;;;;;;;;;;4303663;33;20220;-66
2022/06/24 15:08:12;;;;;;;1.30;1.20;;;;;;;;;;4303632;33;20534;-65
2022/06/24 15:10:40;;;;;;;2.37;1.40;;;;;;;;;;4297713;33;20127;-69
2022/06/24 15:13:07;;;;;;;1.60;1.50;;;;;;;;;;4290491;33;20106;-68
2022/06/24 15:15:33;;;;;;;1.33;1.20;;;;;;;;;;4289887;33;20235;-69
2022/06/24 15:17:59;;;;;;;1.90;1.50;;;;;;;;;;4303887;33;20267;-66
2022/06/24 15:20:25;;;;;;;3.25;1.58;;;;;;;;;;4303541;33;20120;-68
2022/06/24 15:22:51;;;;;;;5.57;1.40;;;;;;;;;;4303158;33;20111;-69
2022/06/24 15:25:17;;;;;;;1.12;1.12;;;;;;;;;;4303371;33;20110;-68
2022/06/24 15:27:43;;;;;;;3.20;1.30;;;;;;;;;;4303436;33;20114;-68
2022/06/24 15:30:09;;;;;;;3.80;1.40;;;;;;;;;;4297947;33;20191;-68
2022/06/24 15:32:35;;;;;;;1.65;1.30;;;;;;;;;;4287575;33;20531;-65